Etusivu
METAR-TAF:

METAR-TAF

Lentoasemat :

Grayling Army Airfield

Grayling, Michigan, Yhdysvallat

Leveyspiiri: 44-40-49N, Pituuspiiri: 084-43-44W, korkeus merenpinnasta: 353 m

Tämänhetkinen sää

Tämä raportti tehtiin 5 tuntia ja 48 minuuttia sitten, kello 09.20 UTC
Tuuli 6 kn idästä/kaakosta
Lämpötila 9°C
Kosteus 71%
Ilmanpaine 1020 hPa
Näkyvyys: 16.1 km
Hajanaisia pilviä 7000 ft:n korkeudessa
Pilvistä 10000 ft:n korkeudessa

METAR: KGOV 220920Z AUTO 12006KT 10SM SCT070 OVC100 09/04 A3012 RMK AO2 RAB0859E20 SLP207

Aika: 11:08 (15:08 UTC)


TAF: puuttuu

Säähavainnot ja -ennusteet yli 4000 lentoasemalta (METAR- ja TAF-raportit).

Käytössä olevat sääasemat on merkitty karttaan keltaisilla ja punaisilla pisteillä.

Aseta hiiri pisteen päälle nähdäksesi sääaseman nimen.

Klikkaa sitten nähdäksesi säähavainnot ja -ennusteet.

Kartan vaihtaminen: klikkaa mustalla rastilla varustettuja vihreitä pisteitä, niin voit zoomata sisään; viivalla varustettua vihreää pistettä, niin voit zoomata ulos tai vihreitä nuolia, niin pääset viereisille kartoille.


METAR-TAF: